createdAt,value
2022-11-09T00:01:12.441Z,101441.56
2022-11-09T00:03:39.015Z,101448.13
2022-11-09T00:06:05.591Z,101449.78
2022-11-09T00:08:33.034Z,101444.38
2022-11-09T00:11:17.819Z,101446.50
2022-11-09T00:13:47.885Z,101439.22
2022-11-09T00:16:22.519Z,101437.22
2022-11-09T00:18:51.926Z,101440.19
2022-11-09T00:21:24.116Z,101435.41
2022-11-09T00:23:54.393Z,101439.91
2022-11-09T00:26:22.141Z,101432.94
2022-11-09T00:28:49.896Z,101435.09
2022-11-09T00:31:21.786Z,101440.19
2022-11-09T00:33:52.918Z,101441.88
2022-11-09T00:36:20.985Z,101452.09
2022-11-09T00:38:53.919Z,101451.41
2022-11-09T00:41:21.748Z,101460.69
2022-11-09T00:43:51.877Z,101460.00
2022-11-09T00:46:22.077Z,101455.03
2022-11-09T00:48:49.016Z,101466.13
2022-11-09T00:51:16.604Z,101464.47
2022-11-09T00:53:43.630Z,101460.53
2022-11-09T00:56:12.647Z,101463.69
2022-11-09T00:58:40.956Z,101459.06
2022-11-09T01:01:13.969Z,101456.06
2022-11-09T01:03:41.044Z,101456.59
2022-11-09T01:06:11.983Z,101446.16
2022-11-09T01:08:38.605Z,101443.53
2022-11-09T01:11:07.860Z,101451.31
2022-11-09T01:13:35.632Z,101442.22
2022-11-09T01:16:08.967Z,101449.13
2022-11-09T01:18:36.223Z,101446.16
2022-11-09T01:21:05.635Z,101441.03
2022-11-09T01:23:33.747Z,101447.13
2022-11-09T01:26:05.705Z,101442.00
2022-11-09T01:28:34.101Z,101447.97
2022-11-09T01:31:04.053Z,101442.84
2022-11-09T01:33:33.593Z,101447.47
2022-11-09T01:36:08.741Z,101434.56
2022-11-09T01:38:37.841Z,101438.03
2022-11-09T01:41:11.522Z,101436.00
2022-11-09T01:43:43.357Z,101441.81
2022-11-09T01:46:33.398Z,101438.31
2022-11-09T01:49:05.331Z,101434.16
2022-11-09T01:51:33.901Z,101428.59
2022-11-09T01:54:25.459Z,101426.91
2022-11-09T01:56:58.398Z,101425.88
2022-11-09T01:59:33.608Z,101425.59
2022-11-09T02:02:01.175Z,101424.13
2022-11-09T02:04:33.856Z,101420.13
2022-11-09T02:07:00.932Z,101418.16
2022-11-09T02:10:09.318Z,101416.19
2022-11-09T02:12:36.226Z,101420.66
2022-11-09T02:15:06.996Z,101420.81
2022-11-09T02:17:34.877Z,101420.69
2022-11-09T02:20:03.817Z,101428.09
2022-11-09T02:22:30.492Z,101431.09
2022-11-09T02:25:01.203Z,101419.97
2022-11-09T02:27:31.653Z,101418.31
2022-11-09T02:30:00.208Z,101420.25
2022-11-09T02:32:29.602Z,101421.31
2022-11-09T02:34:56.746Z,101425.59
2022-11-09T02:37:50.312Z,101417.81
2022-11-09T02:40:28.072Z,101426.59
2022-11-09T02:42:55.336Z,101415.53
2022-11-09T02:45:27.791Z,101423.44
2022-11-09T02:47:54.525Z,101423.91
2022-11-09T02:50:21.251Z,101421.72
2022-11-09T02:52:47.865Z,101419.81
2022-11-09T02:55:16.639Z,101420.13
2022-11-09T02:57:48.602Z,101416.78
2022-11-09T03:00:15.453Z,101417.47
2022-11-09T03:02:45.046Z,101412.59
2022-11-09T03:05:11.711Z,101410.47
2022-11-09T03:07:40.735Z,101413.91
2022-11-09T03:10:09.922Z,101419.41
2022-11-09T03:12:36.626Z,101413.00
2022-11-09T03:15:07.411Z,101421.56
2022-11-09T03:17:35.159Z,101420.19
2022-11-09T03:20:04.318Z,101413.50
2022-11-09T03:22:32.523Z,101417.25
2022-11-09T03:24:59.154Z,101418.28
2022-11-09T03:27:25.877Z,101420.09
2022-11-09T03:29:52.488Z,101421.56
2022-11-09T03:32:22.628Z,101422.13
2022-11-09T03:34:51.850Z,101412.03
2022-11-09T03:37:18.645Z,101414.69
2022-11-09T03:39:45.483Z,101414.69
2022-11-09T03:42:12.014Z,101420.91
2022-11-09T03:44:38.613Z,101420.88
2022-11-09T03:47:05.239Z,101426.34
2022-11-09T03:49:34.452Z,101429.34
2022-11-09T03:52:03.447Z,101422.94
2022-11-09T03:54:30.047Z,101429.72
2022-11-09T03:56:56.638Z,101425.75
2022-11-09T03:59:23.269Z,101434.03
2022-11-09T04:01:55.132Z,101429.72
2022-11-09T04:04:23.956Z,101422.66
2022-11-09T04:06:50.522Z,101431.38
2022-11-09T04:09:20.189Z,101436.81
2022-11-09T04:11:47.078Z,101428.88
2022-11-09T04:14:16.318Z,101427.06
2022-11-09T04:16:42.910Z,101437.16
2022-11-09T04:19:09.552Z,101431.31
2022-11-09T04:21:36.221Z,101427.53
2022-11-09T04:24:03.643Z,101433.00
2022-11-09T04:26:30.195Z,101433.81
2022-11-09T04:29:01.086Z,101438.81
2022-11-09T04:31:30.659Z,101428.84
2022-11-09T04:33:59.275Z,101431.41
2022-11-09T04:36:25.894Z,101428.13
2022-11-09T04:38:55.595Z,101438.41
2022-11-09T04:41:27.429Z,101426.38
2022-11-09T04:43:56.879Z,101426.59
2022-11-09T04:46:23.592Z,101424.78
2022-11-09T04:48:50.193Z,101427.22
2022-11-09T04:51:17.002Z,101423.28
2022-11-09T04:53:43.557Z,101432.19
2022-11-09T04:56:13.364Z,101428.72
2022-11-09T04:58:43.369Z,101421.78
2022-11-09T05:01:14.609Z,101418.28
2022-11-09T05:03:42.764Z,101413.66
2022-11-09T05:06:28.605Z,101406.72
2022-11-09T05:08:56.056Z,101409.75
2022-11-09T05:11:23.296Z,101412.69
2022-11-09T05:13:54.100Z,101408.41
2022-11-09T05:16:23.746Z,101414.53
2022-11-09T05:18:50.951Z,101418.34
2022-11-09T05:21:27.598Z,101417.03
2022-11-09T05:24:00.199Z,101411.91
2022-11-09T05:26:37.521Z,101424.00
2022-11-09T05:29:07.173Z,101435.22
2022-11-09T05:31:35.771Z,101420.97
2022-11-09T05:34:03.558Z,101429.00
2022-11-09T05:36:33.662Z,101433.03
2022-11-09T05:39:00.499Z,101430.94
2022-11-09T05:41:32.379Z,101430.75
2022-11-09T05:44:02.450Z,101433.06
2022-11-09T05:46:33.791Z,101430.63
2022-11-09T05:49:00.291Z,101432.78
2022-11-09T05:51:26.913Z,101433.63
2022-11-09T05:53:53.427Z,101428.97
2022-11-09T05:56:19.962Z,101435.59
2022-11-09T05:58:46.782Z,101436.75
2022-11-09T06:01:18.073Z,101430.16
2022-11-09T06:03:45.094Z,101430.16
2022-11-09T06:06:13.923Z,101424.88
2022-11-09T06:08:40.933Z,101424.19
2022-11-09T06:11:24.046Z,101427.00
2022-11-09T06:13:57.183Z,101425.53
2022-11-09T06:16:23.778Z,101420.72
2022-11-09T06:18:50.647Z,101425.34
2022-11-09T06:21:33.600Z,101429.97
2022-11-09T06:27:41.067Z,101436.53
2022-11-09T06:30:10.712Z,101438.72
2022-11-09T06:32:39.219Z,101444.72
2022-11-09T06:35:08.740Z,101442.81
2022-11-09T06:37:41.341Z,101450.66
2022-11-09T06:40:08.811Z,101437.13
2022-11-09T06:42:35.553Z,101449.09
2022-11-09T06:45:08.428Z,101449.47
2022-11-09T06:47:46.988Z,101449.22
2022-11-09T06:50:22.051Z,101450.22
2022-11-09T06:52:48.602Z,101456.16
2022-11-09T06:55:15.218Z,101460.16
2022-11-09T06:57:43.341Z,101469.03
2022-11-09T07:00:12.069Z,101461.91
2022-11-09T07:02:38.622Z,101458.09
2022-11-09T07:05:05.579Z,101461.41
2022-11-09T07:07:32.320Z,101468.16
2022-11-09T07:10:05.425Z,101471.47
2022-11-09T07:12:33.310Z,101477.88
2022-11-09T07:14:59.847Z,101470.41
2022-11-09T07:17:26.702Z,101486.28
2022-11-09T07:19:55.601Z,101477.56
2022-11-09T07:22:22.176Z,101487.50
2022-11-09T07:24:48.741Z,101491.59
2022-11-09T07:27:15.349Z,101481.78
2022-11-09T07:29:41.915Z,101485.06
2022-11-09T07:32:08.636Z,101487.13
2022-11-09T07:34:35.270Z,101490.63
2022-11-09T07:37:01.836Z,101484.63
2022-11-09T07:39:31.835Z,101487.25
2022-11-09T07:42:08.475Z,101483.78
2022-11-09T07:44:46.122Z,101478.84
2022-11-09T07:47:18.044Z,101474.63
2022-11-09T07:49:46.389Z,101472.78
2022-11-09T07:52:19.547Z,101485.00
2022-11-09T07:54:51.817Z,101478.50
2022-11-09T07:57:18.986Z,101481.16
2022-11-09T07:59:45.479Z,101485.38
2022-11-09T08:02:12.823Z,101478.38
2022-11-09T08:04:43.073Z,101484.00
2022-11-09T08:07:14.199Z,101484.88
2022-11-09T08:09:42.916Z,101486.81
2022-11-09T08:12:09.574Z,101491.38
2022-11-09T08:14:38.012Z,101491.34
2022-11-09T08:17:06.659Z,101490.94
2022-11-09T08:19:34.393Z,101504.78
2022-11-09T08:22:00.983Z,101495.56
2022-11-09T08:24:30.293Z,101500.88
2022-11-09T08:26:56.824Z,101491.94
2022-11-09T08:29:23.623Z,101500.28
2022-11-09T08:31:51.449Z,101491.69
2022-11-09T08:34:18.124Z,101497.88
2022-11-09T08:36:47.795Z,101486.84
2022-11-09T08:39:16.264Z,101499.22
2022-11-09T08:41:48.981Z,101498.50
2022-11-09T08:44:15.569Z,101495.97
2022-11-09T08:46:42.134Z,101493.50
2022-11-09T08:49:08.701Z,101488.38
2022-11-09T08:51:38.433Z,101493.41
2022-11-09T08:54:07.430Z,101489.16
2022-11-09T08:56:33.865Z,101489.75
2022-11-09T08:59:00.325Z,101480.59
2022-11-09T09:01:26.863Z,101476.63
2022-11-09T09:03:53.419Z,101487.66
2022-11-09T09:06:21.697Z,101483.72
2022-11-09T09:08:48.261Z,101485.66
2022-11-09T09:11:16.555Z,101486.09
2022-11-09T09:13:43.818Z,101485.09
2022-11-09T09:16:15.472Z,101489.13
2022-11-09T09:18:48.086Z,101479.50
2022-11-09T09:21:14.739Z,101479.94
2022-11-09T09:23:41.259Z,101478.50
2022-11-09T09:26:07.868Z,101486.53
2022-11-09T09:28:34.883Z,101477.09
2022-11-09T09:31:02.174Z,101478.28
2022-11-09T09:33:29.345Z,101481.53
2022-11-09T09:35:59.391Z,101484.53
2022-11-09T09:38:27.284Z,101481.59
2022-11-09T09:41:20.296Z,101489.66
2022-11-09T09:43:49.746Z,101473.19
2022-11-09T09:46:29.804Z,101471.47
2022-11-09T09:49:10.303Z,101474.00
2022-11-09T09:51:51.045Z,101470.34
2022-11-09T09:54:23.352Z,101469.53
2022-11-09T09:56:51.435Z,101472.97
2022-11-09T09:59:33.214Z,101477.25
2022-11-09T10:01:59.778Z,101471.66
2022-11-09T10:04:36.175Z,101466.72
2022-11-09T10:07:21.556Z,101470.88
2022-11-09T10:10:10.075Z,101465.34
2022-11-09T10:13:15.455Z,101460.59
2022-11-09T10:15:55.395Z,101449.22
2022-11-09T10:19:04.706Z,101456.53
2022-11-09T10:21:52.922Z,101459.47
2022-11-09T10:24:34.372Z,101446.44
2022-11-09T10:27:13.723Z,101447.94
2022-11-09T10:29:46.301Z,101451.25
2022-11-09T10:32:19.960Z,101452.13
2022-11-09T10:35:17.227Z,101445.84
2022-11-09T10:37:46.711Z,101439.53
2022-11-09T10:40:21.359Z,101440.41
2022-11-09T10:43:00.705Z,101435.16
2022-11-09T10:45:37.599Z,101430.41
2022-11-09T10:48:06.049Z,101435.72
2022-11-09T10:50:37.471Z,101424.91
2022-11-09T10:53:24.908Z,101417.81
2022-11-09T10:56:19.956Z,101410.16
2022-11-09T10:58:54.674Z,101406.91
2022-11-09T11:01:26.692Z,101394.66
2022-11-09T11:03:56.070Z,101392.88
2022-11-09T11:06:24.772Z,101392.88
2022-11-09T11:09:07.564Z,101393.19
2022-11-09T11:11:46.451Z,101390.66
2022-11-09T11:14:34.018Z,101387.34
2022-11-09T11:17:01.308Z,101386.94
2022-11-09T11:19:41.439Z,101381.44
2022-11-09T11:22:17.374Z,101382.00
2022-11-09T11:25:01.966Z,101385.41
2022-11-09T11:27:48.726Z,101379.69
2022-11-09T11:30:51.362Z,101384.16
2022-11-09T11:33:22.715Z,101397.50
2022-11-09T11:36:23.327Z,101391.19
2022-11-09T11:38:57.751Z,101380.94
2022-11-09T11:41:51.138Z,101376.41
2022-11-09T11:44:36.173Z,101370.88
2022-11-09T11:47:02.813Z,101380.38
2022-11-09T11:49:56.720Z,101382.28
2022-11-09T11:52:52.892Z,101371.63
2022-11-09T11:55:30.310Z,101368.09
2022-11-09T11:58:30.936Z,101367.41
2022-11-09T12:01:31.515Z,101355.31
2022-11-09T12:04:15.813Z,101362.81
2022-11-09T12:07:01.854Z,101364.06
2022-11-09T12:10:02.197Z,101368.06
2022-11-09T12:12:56.208Z,101379.50
2022-11-09T12:15:59.206Z,101376.63
2022-11-09T12:18:49.121Z,101364.81
2022-11-09T12:21:31.960Z,101371.97
2022-11-09T12:24:06.318Z,101361.97
2022-11-09T12:27:10.904Z,101370.09
2022-11-09T12:29:59.368Z,101357.75
2022-11-09T12:32:48.469Z,101362.09
2022-11-09T12:35:30.641Z,101361.09
2022-11-09T12:38:24.357Z,101350.03
2022-11-09T12:41:04.719Z,101351.03
2022-11-09T12:43:52.506Z,101344.56
2022-11-09T12:46:22.737Z,101335.50
2022-11-09T12:48:50.243Z,101328.88
2022-11-09T12:51:22.931Z,101327.06
2022-11-09T12:53:49.518Z,101329.53
2022-11-09T12:56:22.092Z,101333.69
2022-11-09T12:58:51.369Z,101338.03
2022-11-09T13:01:27.136Z,101321.66
2022-11-09T13:04:01.969Z,101326.56
2022-11-09T13:06:32.027Z,101316.53
2022-11-09T13:09:25.563Z,101332.31
2022-11-09T13:11:54.410Z,101325.09
2022-11-09T13:14:31.346Z,101317.50
2022-11-09T13:17:00.862Z,101315.91
2022-11-09T13:19:39.285Z,101318.16
2022-11-09T13:22:23.286Z,101310.19
2022-11-09T13:25:02.073Z,101318.59
2022-11-09T13:27:45.367Z,101304.88
2022-11-09T13:30:28.463Z,101315.53
2022-11-09T13:33:07.056Z,101311.41
2022-11-09T13:35:39.861Z,101316.50
2022-11-09T13:38:33.676Z,101321.00
2022-11-09T13:41:02.135Z,101326.34
2022-11-09T13:43:44.022Z,101320.59
2022-11-09T13:46:32.210Z,101320.00
2022-11-09T13:49:00.641Z,101320.94
2022-11-09T13:51:33.393Z,101313.63
2022-11-09T13:54:25.415Z,101317.53
2022-11-09T13:56:53.387Z,101310.19
2022-11-09T13:59:31.774Z,101311.63
2022-11-09T14:02:00.591Z,101312.03
2022-11-09T14:04:28.714Z,101312.75
2022-11-09T14:07:03.951Z,101310.25
2022-11-09T14:09:53.551Z,101310.78
2022-11-09T14:12:29.909Z,101310.78
2022-11-09T14:15:06.570Z,101315.13
2022-11-09T14:17:48.727Z,101309.97
2022-11-09T14:20:23.716Z,101304.44
2022-11-09T14:22:51.781Z,101307.72
2022-11-09T14:25:25.939Z,101318.06
2022-11-09T14:27:57.920Z,101319.28
2022-11-09T14:30:39.220Z,101315.19
2022-11-09T14:33:21.440Z,101315.78
2022-11-09T14:36:01.695Z,101326.22
2022-11-09T14:38:47.508Z,101313.38
2022-11-09T14:41:27.738Z,101321.16
2022-11-09T14:43:58.469Z,101315.38
2022-11-09T14:46:42.630Z,101311.09
2022-11-09T14:49:13.620Z,101317.50
2022-11-09T14:51:40.787Z,101309.13
2022-11-09T14:54:18.629Z,101314.59
2022-11-09T14:56:46.290Z,101318.88
2022-11-09T14:59:32.171Z,101320.22
2022-11-09T15:02:14.868Z,101323.03
2022-11-09T15:04:55.523Z,101325.25
2022-11-09T15:07:30.571Z,101320.00
2022-11-09T15:10:17.775Z,101324.50
2022-11-09T15:13:03.824Z,101325.66
2022-11-09T15:15:41.591Z,101319.94
2022-11-09T15:18:23.715Z,101319.56
2022-11-09T15:21:37.511Z,101325.22
2022-11-09T15:24:13.189Z,101319.03
2022-11-09T15:26:45.741Z,101316.28
2022-11-09T15:29:30.643Z,101316.81
2022-11-09T15:32:30.419Z,101326.44
2022-11-09T15:34:59.706Z,101321.25
2022-11-09T15:37:28.608Z,101325.38
2022-11-09T15:39:59.115Z,101313.28
2022-11-09T15:42:26.840Z,101306.88
2022-11-09T15:44:59.499Z,101314.97
2022-11-09T15:47:34.828Z,101307.41
2022-11-09T15:50:11.906Z,101311.63
2022-11-09T15:52:39.671Z,101302.53
2022-11-09T15:55:06.458Z,101301.19
2022-11-09T15:57:45.393Z,101301.38
2022-11-09T16:00:19.262Z,101305.75
2022-11-09T16:02:50.436Z,101303.78
2022-11-09T16:05:17.885Z,101303.16
2022-11-09T16:07:48.930Z,101307.56
2022-11-09T16:10:16.470Z,101308.31
2022-11-09T16:12:47.415Z,101303.13
2022-11-09T16:15:14.339Z,101313.28
2022-11-09T16:17:41.115Z,101320.53
2022-11-09T16:20:28.050Z,101318.25
2022-11-09T16:25:36.048Z,101321.41
2022-11-09T16:28:02.677Z,101318.97
2022-11-09T16:30:29.338Z,101318.56
2022-11-09T16:32:56.009Z,101310.75
2022-11-09T16:35:30.239Z,101326.44
2022-11-09T16:38:01.772Z,101328.25
2022-11-09T16:40:29.193Z,101326.06
2022-11-09T16:43:00.477Z,101329.44
2022-11-09T16:45:33.441Z,101333.50
2022-11-09T16:48:17.767Z,101334.03
2022-11-09T16:50:47.623Z,101339.75
2022-11-09T16:53:25.533Z,101343.53
2022-11-09T16:55:53.588Z,101349.31
2022-11-09T16:58:21.940Z,101353.47
2022-11-09T17:03:36.982Z,101353.56
2022-11-09T17:06:04.025Z,101351.25
2022-11-09T17:08:30.723Z,101354.31
2022-11-09T17:10:57.305Z,101364.34
2022-11-09T17:13:23.903Z,101365.16
2022-11-09T17:15:53.379Z,101365.91
2022-11-09T17:18:20.248Z,101373.31
2022-11-09T17:20:50.009Z,101369.91
2022-11-09T17:23:29.065Z,101375.56
2022-11-09T17:26:03.763Z,101381.25
2022-11-09T17:28:32.520Z,101382.16
2022-11-09T17:31:02.643Z,101377.03
2022-11-09T17:33:35.852Z,101362.88
2022-11-09T17:36:05.148Z,101373.72
2022-11-09T17:38:32.519Z,101369.25
2022-11-09T17:41:10.262Z,101368.72
2022-11-09T17:43:38.453Z,101364.75
2022-11-09T17:46:20.466Z,101371.56
2022-11-09T17:48:51.054Z,101361.03
2022-11-09T17:51:19.682Z,101366.63
2022-11-09T17:53:52.289Z,101361.13
2022-11-09T17:56:24.002Z,101366.00
2022-11-09T17:58:56.352Z,101372.50
2022-11-09T18:01:24.921Z,101373.69
2022-11-09T18:03:53.761Z,101374.50
2022-11-09T18:06:23.150Z,101374.84
2022-11-09T18:09:10.727Z,101371.94
2022-11-09T18:11:40.842Z,101376.69
2022-11-09T18:14:07.698Z,101374.47
2022-11-09T18:16:34.299Z,101386.81
2022-11-09T18:19:04.273Z,101378.88
2022-11-09T18:21:33.724Z,101378.50
2022-11-09T18:24:00.809Z,101380.34
2022-11-09T18:26:27.482Z,101391.31
2022-11-09T18:28:57.032Z,101390.34
2022-11-09T18:31:29.045Z,101387.09
2022-11-09T18:33:59.634Z,101382.38
2022-11-09T18:36:28.027Z,101384.91
2022-11-09T18:38:56.647Z,101380.69
2022-11-09T18:41:24.648Z,101378.69
2022-11-09T18:43:53.978Z,101383.91
2022-11-09T18:46:22.727Z,101379.50
2022-11-09T18:48:53.595Z,101366.16
2022-11-09T18:51:23.283Z,101383.72
2022-11-09T18:53:50.070Z,101383.34
2022-11-09T18:56:24.150Z,101377.59
2022-11-09T18:58:53.143Z,101388.13
2022-11-09T19:01:22.001Z,101391.47
2022-11-09T19:03:48.969Z,101383.44
2022-11-09T19:06:20.412Z,101390.88
2022-11-09T19:09:06.952Z,101381.09
2022-11-09T19:11:36.643Z,101375.78
2022-11-09T19:14:03.416Z,101376.34
2022-11-09T19:16:30.595Z,101373.13
2022-11-09T19:18:57.231Z,101378.16
2022-11-09T19:21:40.278Z,101383.81
2022-11-09T19:24:08.903Z,101384.56
2022-11-09T19:26:35.860Z,101386.72
2022-11-09T19:29:07.339Z,101387.56
2022-11-09T19:31:35.454Z,101392.41
2022-11-09T19:34:02.712Z,101392.41
2022-11-09T19:36:31.424Z,101392.84
2022-11-09T19:38:58.345Z,101393.94
2022-11-09T19:41:29.402Z,101394.59
2022-11-09T19:44:01.465Z,101398.88
2022-11-09T19:46:33.309Z,101406.19
2022-11-09T19:49:01.974Z,101405.09
2022-11-09T19:51:31.860Z,101404.09
2022-11-09T19:54:06.105Z,101404.09
2022-11-09T19:56:38.626Z,101399.81
2022-11-09T19:59:14.659Z,101404.13
2022-11-09T20:01:43.897Z,101397.91
2022-11-09T20:04:13.622Z,101399.47
2022-11-09T20:06:40.703Z,101404.28
2022-11-09T20:09:07.400Z,101405.22
2022-11-09T20:11:52.605Z,101410.50
2022-11-09T20:14:20.626Z,101404.00
2022-11-09T20:16:48.542Z,101405.53
2022-11-09T20:19:15.547Z,101412.13
2022-11-09T20:21:45.743Z,101412.66
2022-11-09T20:24:12.682Z,101409.56
2022-11-09T20:26:44.124Z,101407.91
2022-11-09T20:29:10.973Z,101410.28
2022-11-09T20:31:44.787Z,101409.56
2022-11-09T20:34:11.788Z,101402.78
2022-11-09T20:36:38.594Z,101404.78
2022-11-09T20:39:05.428Z,101428.00
2022-11-09T20:41:33.990Z,101429.75
2022-11-09T20:44:00.944Z,101422.34
2022-11-09T20:46:31.320Z,101430.03
2022-11-09T20:49:04.019Z,101440.13
2022-11-09T20:51:32.661Z,101434.22
2022-11-09T20:54:07.585Z,101434.91
2022-11-09T20:56:36.211Z,101437.06
2022-11-09T20:59:03.055Z,101439.97
2022-11-09T21:01:30.396Z,101444.16
2022-11-09T21:03:58.424Z,101439.09
2022-11-09T21:06:25.119Z,101443.25
2022-11-09T21:08:55.937Z,101437.00
2022-11-09T21:11:37.178Z,101435.38
2022-11-09T21:14:06.853Z,101435.94
2022-11-09T21:16:33.473Z,101436.97
2022-11-09T21:19:07.756Z,101443.63
2022-11-09T21:21:36.730Z,101437.06
2022-11-09T21:24:22.890Z,101436.84
2022-11-09T21:27:08.288Z,101427.00
2022-11-09T21:29:53.321Z,101434.25
2022-11-09T21:32:25.255Z,101421.97
2022-11-09T21:34:52.043Z,101421.78
2022-11-09T21:37:18.786Z,101413.63
2022-11-09T21:39:48.237Z,101406.50
2022-11-09T21:42:15.193Z,101415.88
2022-11-09T21:44:42.158Z,101418.16
2022-11-09T21:47:09.271Z,101419.72
2022-11-09T21:49:36.038Z,101418.13
2022-11-09T21:52:03.575Z,101418.31
2022-11-09T21:54:30.673Z,101418.00
2022-11-09T21:56:57.840Z,101420.00
2022-11-09T21:59:24.696Z,101420.00
2022-11-09T22:01:52.275Z,101424.88
2022-11-09T22:04:18.981Z,101433.66
2022-11-09T22:06:45.740Z,101435.53
2022-11-09T22:09:16.280Z,101440.84
2022-11-09T22:12:01.615Z,101442.81
2022-11-09T22:14:46.700Z,101444.19
2022-11-09T22:17:13.673Z,101429.75
2022-11-09T22:20:02.531Z,101419.47
2022-11-09T22:22:30.691Z,101423.34
2022-11-09T22:24:59.058Z,101429.75
2022-11-09T22:27:29.475Z,101427.19
2022-11-09T22:29:56.151Z,101429.59
2022-11-09T22:32:25.952Z,101427.66
2022-11-09T22:34:54.371Z,101420.19
2022-11-09T22:37:21.421Z,101429.75
2022-11-09T22:39:49.737Z,101429.41
2022-11-09T22:42:19.083Z,101425.69
2022-11-09T22:44:45.787Z,101425.38
2022-11-09T22:47:12.367Z,101429.41
2022-11-09T22:49:39.036Z,101424.66
2022-11-09T22:52:05.672Z,101429.47
2022-11-09T22:54:32.341Z,101429.25
2022-11-09T22:56:59.191Z,101434.19
2022-11-09T22:59:25.917Z,101429.78
2022-11-09T23:02:01.015Z,101446.78
2022-11-09T23:04:30.731Z,101430.94
2022-11-09T23:06:57.607Z,101430.81
2022-11-09T23:09:29.234Z,101430.81
2022-11-09T23:11:56.550Z,101424.94
2022-11-09T23:14:43.700Z,101421.28
2022-11-09T23:17:30.280Z,101427.97
2022-11-09T23:19:56.985Z,101421.53
2022-11-09T23:22:23.695Z,101439.41
2022-11-09T23:25:09.117Z,101430.13
2022-11-09T23:27:35.688Z,101429.81
2022-11-09T23:30:02.275Z,101426.13
2022-11-09T23:32:29.098Z,101442.13
2022-11-09T23:34:55.808Z,101439.19
2022-11-09T23:37:24.536Z,101452.53
2022-11-09T23:39:54.616Z,101452.19
2022-11-09T23:42:22.996Z,101446.13
2022-11-09T23:44:52.579Z,101438.56
2022-11-09T23:47:22.171Z,101430.41
2022-11-09T23:49:48.755Z,101437.66
2022-11-09T23:52:18.349Z,101429.13
2022-11-09T23:54:47.891Z,101431.13
2022-11-09T23:57:14.654Z,101431.19
2022-11-09T23:59:43.330Z,101422.34
